sensor_id;sensor_type;location;lat;lon;timestamp;temperature;humidity
31979;DHT22;18502;43.574;1.276;2022-09-12T00:00:31;21.50;71.60
31979;DHT22;18502;43.574;1.276;2022-09-12T00:02:58;21.50;71.90
31979;DHT22;18502;43.574;1.276;2022-09-12T00:05:24;21.40;72.70
31979;DHT22;18502;43.574;1.276;2022-09-12T00:07:50;21.40;73.20
31979;DHT22;18502;43.574;1.276;2022-09-12T00:10:16;21.40;73.40
31979;DHT22;18502;43.574;1.276;2022-09-12T00:12:42;21.30;74.00
31979;DHT22;18502;43.574;1.276;2022-09-12T00:15:08;21.30;74.40
31979;DHT22;18502;43.574;1.276;2022-09-12T00:17:36;21.20;74.80
31979;DHT22;18502;43.574;1.276;2022-09-12T00:20:06;21.20;75.60
31979;DHT22;18502;43.574;1.276;2022-09-12T00:22:33;21.20;75.50
31979;DHT22;18502;43.574;1.276;2022-09-12T00:24:59;21.10;75.90
31979;DHT22;18502;43.574;1.276;2022-09-12T00:27:25;21.10;76.10
31979;DHT22;18502;43.574;1.276;2022-09-12T00:29:51;21.10;76.50
31979;DHT22;18502;43.574;1.276;2022-09-12T00:32:17;21.00;76.80
31979;DHT22;18502;43.574;1.276;2022-09-12T00:34:43;20.90;77.40
31979;DHT22;18502;43.574;1.276;2022-09-12T00:37:08;20.90;77.60
31979;DHT22;18502;43.574;1.276;2022-09-12T00:39:34;20.80;78.00
31979;DHT22;18502;43.574;1.276;2022-09-12T00:42:00;20.80;78.80
31979;DHT22;18502;43.574;1.276;2022-09-12T00:50:09;20.80;79.40
31979;DHT22;18502;43.574;1.276;2022-09-12T00:52:43;20.80;79.60
31979;DHT22;18502;43.574;1.276;2022-09-12T00:57:54;20.80;80.40
31979;DHT22;18502;43.574;1.276;2022-09-12T01:00:24;20.80;80.70
31979;DHT22;18502;43.574;1.276;2022-09-12T01:02:55;20.80;80.90
31979;DHT22;18502;43.574;1.276;2022-09-12T01:05:22;20.80;81.50
31979;DHT22;18502;43.574;1.276;2022-09-12T01:07:49;20.70;82.10
31979;DHT22;18502;43.574;1.276;2022-09-12T01:10:17;20.60;82.60
31979;DHT22;18502;43.574;1.276;2022-09-12T01:12:44;20.60;82.90
31979;DHT22;18502;43.574;1.276;2022-09-12T01:15:10;20.60;83.60
31979;DHT22;18502;43.574;1.276;2022-09-12T01:29:18;20.50;85.50
31979;DHT22;18502;43.574;1.276;2022-09-12T01:32:11;20.50;85.90
31979;DHT22;18502;43.574;1.276;2022-09-12T01:34:51;20.40;86.60
31979;DHT22;18502;43.574;1.276;2022-09-12T01:40:09;20.40;87.70
31979;DHT22;18502;43.574;1.276;2022-09-12T01:43:03;20.40;88.10
31979;DHT22;18502;43.574;1.276;2022-09-12T01:45:45;20.40;88.60
31979;DHT22;18502;43.574;1.276;2022-09-12T01:51:20;20.30;89.50
31979;DHT22;18502;43.574;1.276;2022-09-12T01:53:41;20.30;90.00
31979;DHT22;18502;43.574;1.276;2022-09-12T01:56:16;20.30;90.10
31979;DHT22;18502;43.574;1.276;2022-09-12T01:59:16;20.30;90.30
31979;DHT22;18502;43.574;1.276;2022-09-12T02:02:35;20.20;90.40
31979;DHT22;18502;43.574;1.276;2022-09-12T02:04:48;20.20;90.80
31979;DHT22;18502;43.574;1.276;2022-09-12T02:07:29;20.10;91.00
31979;DHT22;18502;43.574;1.276;2022-09-12T02:10:20;20.20;91.20
31979;DHT22;18502;43.574;1.276;2022-09-12T02:15:33;20.10;91.60
31979;DHT22;18502;43.574;1.276;2022-09-12T02:18:03;20.00;92.10
31979;DHT22;18502;43.574;1.276;2022-09-12T02:20:33;19.90;92.50
31979;DHT22;18502;43.574;1.276;2022-09-12T02:23:00;19.90;92.60
31979;DHT22;18502;43.574;1.276;2022-09-12T02:25:28;19.90;92.80
31979;DHT22;18502;43.574;1.276;2022-09-12T02:28:05;19.90;93.00
31979;DHT22;18502;43.574;1.276;2022-09-12T02:30:42;19.90;93.40
31979;DHT22;18502;43.574;1.276;2022-09-12T02:36:03;20.00;93.90
31979;DHT22;18502;43.574;1.276;2022-09-12T02:38:40;20.30;93.80
31979;DHT22;18502;43.574;1.276;2022-09-12T02:41:09;20.30;93.90
31979;DHT22;18502;43.574;1.276;2022-09-12T02:43:35;20.30;94.10
31979;DHT22;18502;43.574;1.276;2022-09-12T02:46:07;20.30;94.30
31979;DHT22;18502;43.574;1.276;2022-09-12T02:48:38;20.30;94.40
31979;DHT22;18502;43.574;1.276;2022-09-12T02:51:05;20.30;94.60
31979;DHT22;18502;43.574;1.276;2022-09-12T02:53:31;20.30;94.80
31979;DHT22;18502;43.574;1.276;2022-09-12T02:55:58;20.20;94.90
31979;DHT22;18502;43.574;1.276;2022-09-12T02:58:27;20.10;95.30
31979;DHT22;18502;43.574;1.276;2022-09-12T03:09:14;20.10;96.10
31979;DHT22;18502;43.574;1.276;2022-09-12T03:20:42;20.10;96.60
31979;DHT22;18502;43.574;1.276;2022-09-12T03:23:59;20.10;96.80
31979;DHT22;18502;43.574;1.276;2022-09-12T03:26:11;20.10;96.80
31979;DHT22;18502;43.574;1.276;2022-09-12T03:28:41;20.10;96.90
31979;DHT22;18502;43.574;1.276;2022-09-12T03:31:16;20.10;97.00
31979;DHT22;18502;43.574;1.276;2022-09-12T03:33:43;20.00;97.30
31979;DHT22;18502;43.574;1.276;2022-09-12T03:36:23;20.10;97.50
31979;DHT22;18502;43.574;1.276;2022-09-12T03:38:50;20.00;97.70
31979;DHT22;18502;43.574;1.276;2022-09-12T03:41:15;20.00;97.90
31979;DHT22;18502;43.574;1.276;2022-09-12T03:43:41;20.10;98.00
31979;DHT22;18502;43.574;1.276;2022-09-12T03:46:07;20.10;98.00
31979;DHT22;18502;43.574;1.276;2022-09-12T03:48:32;20.20;98.20
31979;DHT22;18502;43.574;1.276;2022-09-12T03:51:03;20.30;98.00
31979;DHT22;18502;43.574;1.276;2022-09-12T03:53:30;20.20;98.30
31979;DHT22;18502;43.574;1.276;2022-09-12T03:55:56;20.30;98.20
31979;DHT22;18502;43.574;1.276;2022-09-12T03:58:22;20.30;98.50
31979;DHT22;18502;43.574;1.276;2022-09-12T04:00:48;20.30;98.50
31979;DHT22;18502;43.574;1.276;2022-09-12T04:03:14;20.30;98.60
31979;DHT22;18502;43.574;1.276;2022-09-12T04:05:40;20.20;98.70
31979;DHT22;18502;43.574;1.276;2022-09-12T04:08:05;20.20;98.90
31979;DHT22;18502;43.574;1.276;2022-09-12T04:10:31;20.10;99.10
31979;DHT22;18502;43.574;1.276;2022-09-12T04:12:57;20.10;99.20
31979;DHT22;18502;43.574;1.276;2022-09-12T04:15:23;20.10;99.30
31979;DHT22;18502;43.574;1.276;2022-09-12T04:17:48;20.10;99.30
31979;DHT22;18502;43.574;1.276;2022-09-12T04:20:14;20.10;99.40
31979;DHT22;18502;43.574;1.276;2022-09-12T04:22:40;20.10;99.30
31979;DHT22;18502;43.574;1.276;2022-09-12T04:25:06;20.10;99.50
31979;DHT22;18502;43.574;1.276;2022-09-12T04:27:32;20.10;99.50
31979;DHT22;18502;43.574;1.276;2022-09-12T04:29:59;20.10;99.60
31979;DHT22;18502;43.574;1.276;2022-09-12T04:32:25;20.20;99.60
31979;DHT22;18502;43.574;1.276;2022-09-12T04:34:51;20.20;99.80
31979;DHT22;18502;43.574;1.276;2022-09-12T04:37:17;20.20;99.90
31979;DHT22;18502;43.574;1.276;2022-09-12T04:39:42;20.20;99.90
31979;DHT22;18502;43.574;1.276;2022-09-12T04:42:08;20.20;99.90
31979;DHT22;18502;43.574;1.276;2022-09-12T04:44:34;20.30;99.90
31979;DHT22;18502;43.574;1.276;2022-09-12T04:46:59;20.30;99.90
31979;DHT22;18502;43.574;1.276;2022-09-12T04:49:25;20.40;99.90
31979;DHT22;18502;43.574;1.276;2022-09-12T04:51:52;20.40;99.90
31979;DHT22;18502;43.574;1.276;2022-09-12T04:54:19;20.30;99.90
31979;DHT22;18502;43.574;1.276;2022-09-12T04:56:47;20.40;99.90
31979;DHT22;18502;43.574;1.276;2022-09-12T04:59:18;20.40;99.90
31979;DHT22;18502;43.574;1.276;2022-09-12T05:01:44;20.30;99.90
31979;DHT22;18502;43.574;1.276;2022-09-12T05:04:11;20.30;99.90
31979;DHT22;18502;43.574;1.276;2022-09-12T05:06:38;20.30;99.90
31979;DHT22;18502;43.574;1.276;2022-09-12T05:09:06;20.20;99.90
31979;DHT22;18502;43.574;1.276;2022-09-12T05:11:34;20.20;99.90
31979;DHT22;18502;43.574;1.276;2022-09-12T05:14:00;20.20;99.90
31979;DHT22;18502;43.574;1.276;2022-09-12T05:16:27;20.30;99.90
31979;DHT22;18502;43.574;1.276;2022-09-12T05:18:54;20.30;99.90
31979;DHT22;18502;43.574;1.276;2022-09-12T05:21:22;20.30;99.90
31979;DHT22;18502;43.574;1.276;2022-09-12T05:23:52;20.30;99.90
31979;DHT22;18502;43.574;1.276;2022-09-12T05:26:18;20.30;99.90
31979;DHT22;18502;43.574;1.276;2022-09-12T05:28:45;20.30;99.90
31979;DHT22;18502;43.574;1.276;2022-09-12T05:31:13;20.30;99.90
31979;DHT22;18502;43.574;1.276;2022-09-12T05:33:41;20.30;99.90
31979;DHT22;18502;43.574;1.276;2022-09-12T05:36:11;20.30;99.90
31979;DHT22;18502;43.574;1.276;2022-09-12T05:38:37;20.20;99.90
31979;DHT22;18502;43.574;1.276;2022-09-12T05:41:09;20.40;99.90
31979;DHT22;18502;43.574;1.276;2022-09-12T05:43:37;20.50;99.90
31979;DHT22;18502;43.574;1.276;2022-09-12T05:46:05;20.50;99.90
31979;DHT22;18502;43.574;1.276;2022-09-12T05:48:33;20.50;99.90
31979;DHT22;18502;43.574;1.276;2022-09-12T05:51:08;20.60;99.90
31979;DHT22;18502;43.574;1.276;2022-09-12T05:53:39;20.60;99.90
31979;DHT22;18502;43.574;1.276;2022-09-12T05:56:16;20.60;99.90
31979;DHT22;18502;43.574;1.276;2022-09-12T05:59:03;20.60;99.90
31979;DHT22;18502;43.574;1.276;2022-09-12T06:01:30;20.60;99.90
31979;DHT22;18502;43.574;1.276;2022-09-12T06:03:58;20.70;99.90
31979;DHT22;18502;43.574;1.276;2022-09-12T06:06:29;20.70;99.90
31979;DHT22;18502;43.574;1.276;2022-09-12T06:08:58;20.70;99.90
31979;DHT22;18502;43.574;1.276;2022-09-12T06:11:26;20.80;99.90
31979;DHT22;18502;43.574;1.276;2022-09-12T06:13:54;20.80;99.90
31979;DHT22;18502;43.574;1.276;2022-09-12T06:16:22;20.90;99.90
31979;DHT22;18502;43.574;1.276;2022-09-12T06:18:51;20.90;99.90
31979;DHT22;18502;43.574;1.276;2022-09-12T06:21:18;20.90;99.90
31979;DHT22;18502;43.574;1.276;2022-09-12T06:23:44;21.00;99.90
31979;DHT22;18502;43.574;1.276;2022-09-12T06:26:11;21.10;99.90
31979;DHT22;18502;43.574;1.276;2022-09-12T06:28:39;21.10;99.90
31979;DHT22;18502;43.574;1.276;2022-09-12T06:31:10;21.20;99.90
31979;DHT22;18502;43.574;1.276;2022-09-12T06:33:39;21.30;99.90
31979;DHT22;18502;43.574;1.276;2022-09-12T06:36:09;21.30;99.90
31979;DHT22;18502;43.574;1.276;2022-09-12T06:38:35;21.40;99.90
31979;DHT22;18502;43.574;1.276;2022-09-12T06:41:05;21.50;99.90
31979;DHT22;18502;43.574;1.276;2022-09-12T06:43:32;21.50;99.90
31979;DHT22;18502;43.574;1.276;2022-09-12T06:45:58;21.60;99.90
31979;DHT22;18502;43.574;1.276;2022-09-12T06:48:24;21.70;99.90
31979;DHT22;18502;43.574;1.276;2022-09-12T06:51:08;21.80;99.90
31979;DHT22;18502;43.574;1.276;2022-09-12T06:53:34;21.90;99.90
31979;DHT22;18502;43.574;1.276;2022-09-12T06:56:11;21.90;99.90
31979;DHT22;18502;43.574;1.276;2022-09-12T06:58:38;22.00;99.90
31979;DHT22;18502;43.574;1.276;2022-09-12T07:01:14;22.10;99.90
31979;DHT22;18502;43.574;1.276;2022-09-12T07:03:41;22.20;99.90
31979;DHT22;18502;43.574;1.276;2022-09-12T07:06:11;22.30;99.90
31979;DHT22;18502;43.574;1.276;2022-09-12T07:08:38;22.40;99.90
31979;DHT22;18502;43.574;1.276;2022-09-12T07:13:42;22.50;99.90
31979;DHT22;18502;43.574;1.276;2022-09-12T07:16:09;22.50;99.90
31979;DHT22;18502;43.574;1.276;2022-09-12T07:18:35;22.60;99.90
31979;DHT22;18502;43.574;1.276;2022-09-12T07:21:04;22.70;99.90
31979;DHT22;18502;43.574;1.276;2022-09-12T07:23:30;22.80;99.90
31979;DHT22;18502;43.574;1.276;2022-09-12T07:25:57;22.90;99.90
31979;DHT22;18502;43.574;1.276;2022-09-12T07:28:24;23.00;99.90
31979;DHT22;18502;43.574;1.276;2022-09-12T07:30:51;23.00;99.90
31979;DHT22;18502;43.574;1.276;2022-09-12T07:33:23;23.10;99.90
31979;DHT22;18502;43.574;1.276;2022-09-12T07:35:50;23.30;99.90
31979;DHT22;18502;43.574;1.276;2022-09-12T07:38:22;23.30;99.90
31979;DHT22;18502;43.574;1.276;2022-09-12T07:40:47;23.30;99.90
31979;DHT22;18502;43.574;1.276;2022-09-12T07:43:13;23.50;99.90
31979;DHT22;18502;43.574;1.276;2022-09-12T07:45:39;23.50;99.90
31979;DHT22;18502;43.574;1.276;2022-09-12T07:48:08;23.60;99.90
31979;DHT22;18502;43.574;1.276;2022-09-12T07:50:34;23.50;99.90
31979;DHT22;18502;43.574;1.276;2022-09-12T07:53:04;23.60;99.90
31979;DHT22;18502;43.574;1.276;2022-09-12T07:55:30;23.70;99.90
31979;DHT22;18502;43.574;1.276;2022-09-12T07:57:55;23.90;99.90
31979;DHT22;18502;43.574;1.276;2022-09-12T08:00:21;24.10;99.90
31979;DHT22;18502;43.574;1.276;2022-09-12T08:02:51;24.20;99.90
31979;DHT22;18502;43.574;1.276;2022-09-12T08:05:17;24.20;99.90
31979;DHT22;18502;43.574;1.276;2022-09-12T08:07:43;24.30;99.90
31979;DHT22;18502;43.574;1.276;2022-09-12T08:10:09;24.40;99.90
31979;DHT22;18502;43.574;1.276;2022-09-12T08:12:35;24.20;99.90
31979;DHT22;18502;43.574;1.276;2022-09-12T08:15:01;24.20;99.90
31979;DHT22;18502;43.574;1.276;2022-09-12T08:17:27;24.20;99.90
31979;DHT22;18502;43.574;1.276;2022-09-12T08:19:54;24.50;99.90
31979;DHT22;18502;43.574;1.276;2022-09-12T08:22:21;24.50;99.90
31979;DHT22;18502;43.574;1.276;2022-09-12T08:24:47;24.50;99.90
31979;DHT22;18502;43.574;1.276;2022-09-12T08:27:13;24.60;99.90
31979;DHT22;18502;43.574;1.276;2022-09-12T08:29:40;24.60;99.90
31979;DHT22;18502;43.574;1.276;2022-09-12T08:32:05;24.60;99.90
31979;DHT22;18502;43.574;1.276;2022-09-12T08:34:31;24.70;99.90
31979;DHT22;18502;43.574;1.276;2022-09-12T08:36:57;24.80;99.90
31979;DHT22;18502;43.574;1.276;2022-09-12T08:39:23;24.80;99.90
31979;DHT22;18502;43.574;1.276;2022-09-12T08:42:03;24.90;99.90
31979;DHT22;18502;43.574;1.276;2022-09-12T08:44:46;24.90;99.90
31979;DHT22;18502;43.574;1.276;2022-09-12T08:47:17;25.00;99.90
31979;DHT22;18502;43.574;1.276;2022-09-12T08:50:16;25.00;99.90
31979;DHT22;18502;43.574;1.276;2022-09-12T08:52:49;25.20;99.90
31979;DHT22;18502;43.574;1.276;2022-09-12T08:55:37;25.20;99.90
31979;DHT22;18502;43.574;1.276;2022-09-12T08:58:17;25.30;99.90
31979;DHT22;18502;43.574;1.276;2022-09-12T09:15:02;26.00;95.80
31979;DHT22;18502;43.574;1.276;2022-09-12T09:17:38;25.90;95.10
31979;DHT22;18502;43.574;1.276;2022-09-12T09:25:49;26.40;93.10
31979;DHT22;18502;43.574;1.276;2022-09-12T09:28:34;26.80;92.30
31979;DHT22;18502;43.574;1.276;2022-09-12T09:31:02;26.70;91.10
31979;DHT22;18502;43.574;1.276;2022-09-12T09:33:33;26.80;90.40
31979;DHT22;18502;43.574;1.276;2022-09-12T09:36:02;26.90;89.60
31979;DHT22;18502;43.574;1.276;2022-09-12T09:38:40;26.90;89.10
31979;DHT22;18502;43.574;1.276;2022-09-12T09:41:41;26.70;88.70
31979;DHT22;18502;43.574;1.276;2022-09-12T09:44:10;27.30;87.70
31979;DHT22;18502;43.574;1.276;2022-09-12T09:46:36;27.40;87.10
31979;DHT22;18502;43.574;1.276;2022-09-12T09:49:02;27.40;86.40
31979;DHT22;18502;43.574;1.276;2022-09-12T09:51:34;27.60;85.80
31979;DHT22;18502;43.574;1.276;2022-09-12T09:54:22;27.80;84.60
31979;DHT22;18502;43.574;1.276;2022-09-12T09:56:49;27.90;84.70
31979;DHT22;18502;43.574;1.276;2022-09-12T09:59:18;27.40;84.50
31979;DHT22;18502;43.574;1.276;2022-09-12T10:01:52;27.70;83.90
31979;DHT22;18502;43.574;1.276;2022-09-12T10:04:25;27.70;83.70
31979;DHT22;18502;43.574;1.276;2022-09-12T10:06:52;27.90;82.30
31979;DHT22;18502;43.574;1.276;2022-09-12T10:09:24;28.20;81.60
31979;DHT22;18502;43.574;1.276;2022-09-12T10:11:52;29.50;77.40
31979;DHT22;18502;43.574;1.276;2022-09-12T10:16:57;31.10;70.60
31979;DHT22;18502;43.574;1.276;2022-09-12T10:19:36;31.30;68.60
31979;DHT22;18502;43.574;1.276;2022-09-12T10:22:03;32.40;65.60
31979;DHT22;18502;43.574;1.276;2022-09-12T10:24:36;32.20;63.10
31979;DHT22;18502;43.574;1.276;2022-09-12T10:29:37;32.40;62.10
31979;DHT22;18502;43.574;1.276;2022-09-12T10:32:06;32.20;62.70
31979;DHT22;18502;43.574;1.276;2022-09-12T10:34:43;30.70;64.80
31979;DHT22;18502;43.574;1.276;2022-09-12T10:37:22;31.30;64.30
31979;DHT22;18502;43.574;1.276;2022-09-12T10:39:53;32.10;61.50
31979;DHT22;18502;43.574;1.276;2022-09-12T10:45:23;34.10;58.30
31979;DHT22;18502;43.574;1.276;2022-09-12T10:47:50;35.30;55.50
31979;DHT22;18502;43.574;1.276;2022-09-12T10:50:38;34.10;55.90
31979;DHT22;18502;43.574;1.276;2022-09-12T10:53:39;34.00;55.30
31979;DHT22;18502;43.574;1.276;2022-09-12T10:56:21;33.70;55.90
31979;DHT22;18502;43.574;1.276;2022-09-12T10:59:12;35.20;52.80
31979;DHT22;18502;43.574;1.276;2022-09-12T11:01:49;33.40;55.30
31979;DHT22;18502;43.574;1.276;2022-09-12T11:10:20;34.50;52.80
31979;DHT22;18502;43.574;1.276;2022-09-12T11:18:31;34.10;51.60
31979;DHT22;18502;43.574;1.276;2022-09-12T11:30:10;36.80;46.50
31979;DHT22;18502;43.574;1.276;2022-09-12T11:43:32;31.70;53.00
31979;DHT22;18502;43.574;1.276;2022-09-12T11:46:05;31.50;53.60
31979;DHT22;18502;43.574;1.276;2022-09-12T11:57:07;34.00;50.70
31979;DHT22;18502;43.574;1.276;2022-09-12T11:59:58;32.60;51.70
31979;DHT22;18502;43.574;1.276;2022-09-12T12:05:34;30.80;56.60
31979;DHT22;18502;43.574;1.276;2022-09-12T12:08:03;30.00;57.90
31979;DHT22;18502;43.574;1.276;2022-09-12T12:10:39;29.70;58.50
31979;DHT22;18502;43.574;1.276;2022-09-12T12:13:29;29.50;59.30
31979;DHT22;18502;43.574;1.276;2022-09-12T12:15:56;30.00;58.40
31979;DHT22;18502;43.574;1.276;2022-09-12T12:18:26;29.80;58.70
31979;DHT22;18502;43.574;1.276;2022-09-12T12:20:52;30.20;58.10
31979;DHT22;18502;43.574;1.276;2022-09-12T12:23:33;30.60;57.50
31979;DHT22;18502;43.574;1.276;2022-09-12T12:26:01;31.50;56.20
31979;DHT22;18502;43.574;1.276;2022-09-12T12:31:16;30.00;58.00
31979;DHT22;18502;43.574;1.276;2022-09-12T12:36:30;29.80;59.10
31979;DHT22;18502;43.574;1.276;2022-09-12T12:38:58;29.20;60.20
31979;DHT22;18502;43.574;1.276;2022-09-12T12:43:50;29.10;61.50
31979;DHT22;18502;43.574;1.276;2022-09-12T12:46:21;29.40;61.20
31979;DHT22;18502;43.574;1.276;2022-09-12T12:51:55;28.80;62.20
31979;DHT22;18502;43.574;1.276;2022-09-12T13:02:29;29.00;62.70
31979;DHT22;18502;43.574;1.276;2022-09-12T13:04:57;30.00;61.00
31979;DHT22;18502;43.574;1.276;2022-09-12T13:07:32;30.60;60.00
31979;DHT22;18502;43.574;1.276;2022-09-12T13:09:59;31.40;58.80
31979;DHT22;18502;43.574;1.276;2022-09-12T13:12:45;30.40;59.50
31979;DHT22;18502;43.574;1.276;2022-09-12T13:15:50;30.90;59.10
31979;DHT22;18502;43.574;1.276;2022-09-12T13:18:29;29.90;60.30
31979;DHT22;18502;43.574;1.276;2022-09-12T13:21:14;29.50;61.70
31979;DHT22;18502;43.574;1.276;2022-09-12T13:23:41;30.00;60.80
31979;DHT22;18502;43.574;1.276;2022-09-12T13:26:21;30.00;60.80
31979;DHT22;18502;43.574;1.276;2022-09-12T13:28:47;31.20;59.30
31979;DHT22;18502;43.574;1.276;2022-09-12T13:31:25;31.30;58.20
31979;DHT22;18502;43.574;1.276;2022-09-12T13:33:59;32.90;56.10
31979;DHT22;18502;43.574;1.276;2022-09-12T13:42:06;31.30;57.80
31979;DHT22;18502;43.574;1.276;2022-09-12T13:45:25;30.60;59.40
31979;DHT22;18502;43.574;1.276;2022-09-12T13:47:30;30.70;59.10
31979;DHT22;18502;43.574;1.276;2022-09-12T13:49:58;30.30;60.00
31979;DHT22;18502;43.574;1.276;2022-09-12T13:52:27;30.90;59.60
31979;DHT22;18502;43.574;1.276;2022-09-12T13:54:56;32.90;56.10
31979;DHT22;18502;43.574;1.276;2022-09-12T13:59:58;34.20;54.00
31979;DHT22;18502;43.574;1.276;2022-09-12T14:02:27;35.70;51.50
31979;DHT22;18502;43.574;1.276;2022-09-12T14:04:54;33.70;53.00
31979;DHT22;18502;43.574;1.276;2022-09-12T14:07:48;31.40;57.10
31979;DHT22;18502;43.574;1.276;2022-09-12T14:10:29;30.20;59.90
31979;DHT22;18502;43.574;1.276;2022-09-12T14:12:57;30.40;59.60
31979;DHT22;18502;43.574;1.276;2022-09-12T14:15:25;29.70;61.00
31979;DHT22;18502;43.574;1.276;2022-09-12T14:17:57;29.90;60.70
31979;DHT22;18502;43.574;1.276;2022-09-12T14:20:28;29.90;61.60
31979;DHT22;18502;43.574;1.276;2022-09-12T14:23:00;30.80;59.90
31979;DHT22;18502;43.574;1.276;2022-09-12T14:25:35;31.30;59.10
31979;DHT22;18502;43.574;1.276;2022-09-12T14:28:03;34.20;55.10
31979;DHT22;18502;43.574;1.276;2022-09-12T14:30:33;33.00;55.70
31979;DHT22;18502;43.574;1.276;2022-09-12T14:35:45;33.00;56.10
31979;DHT22;18502;43.574;1.276;2022-09-12T14:40:45;32.40;56.80
31979;DHT22;18502;43.574;1.276;2022-09-12T14:43:33;32.30;57.00
31979;DHT22;18502;43.574;1.276;2022-09-12T14:46:03;31.80;58.40
31979;DHT22;18502;43.574;1.276;2022-09-12T14:48:35;30.70;59.60
31979;DHT22;18502;43.574;1.276;2022-09-12T14:51:02;32.60;57.30
31979;DHT22;18502;43.574;1.276;2022-09-12T14:53:36;31.80;58.00
31979;DHT22;18502;43.574;1.276;2022-09-12T14:56:10;36.30;52.20
31979;DHT22;18502;43.574;1.276;2022-09-12T14:58:38;39.10;48.10
31979;DHT22;18502;43.574;1.276;2022-09-12T15:06:04;32.90;55.80
31979;DHT22;18502;43.574;1.276;2022-09-12T15:08:32;33.40;55.20
31979;DHT22;18502;43.574;1.276;2022-09-12T15:10:59;32.50;56.10
31979;DHT22;18502;43.574;1.276;2022-09-12T15:13:26;32.10;57.20
31979;DHT22;18502;43.574;1.276;2022-09-12T15:15:57;32.10;58.20
31979;DHT22;18502;43.574;1.276;2022-09-12T15:18:26;31.80;57.60
31979;DHT22;18502;43.574;1.276;2022-09-12T15:20:55;32.00;59.30
31979;DHT22;18502;43.574;1.276;2022-09-12T15:23:35;32.90;57.90
31979;DHT22;18502;43.574;1.276;2022-09-12T15:26:03;36.10;53.60
31979;DHT22;18502;43.574;1.276;2022-09-12T15:28:30;36.90;52.50
31979;DHT22;18502;43.574;1.276;2022-09-12T15:30:56;37.20;52.30
31979;DHT22;18502;43.574;1.276;2022-09-12T15:33:24;38.70;49.30
31979;DHT22;18502;43.574;1.276;2022-09-12T15:35:51;38.60;49.50
31979;DHT22;18502;43.574;1.276;2022-09-12T15:38:17;40.00;47.80
31979;DHT22;18502;43.574;1.276;2022-09-12T15:40:43;37.80;49.50
31979;DHT22;18502;43.574;1.276;2022-09-12T15:43:11;36.40;52.20
31979;DHT22;18502;43.574;1.276;2022-09-12T15:45:40;35.80;52.50
31979;DHT22;18502;43.574;1.276;2022-09-12T15:48:06;33.00;56.60
31979;DHT22;18502;43.574;1.276;2022-09-12T15:50:33;33.10;58.00
31979;DHT22;18502;43.574;1.276;2022-09-12T15:52:58;34.40;56.10
31979;DHT22;18502;43.574;1.276;2022-09-12T15:55:27;35.60;55.00
31979;DHT22;18502;43.574;1.276;2022-09-12T15:57:53;36.40;53.00
31979;DHT22;18502;43.574;1.276;2022-09-12T16:00:20;34.70;55.40
31979;DHT22;18502;43.574;1.276;2022-09-12T16:02:48;34.40;56.70
31979;DHT22;18502;43.574;1.276;2022-09-12T16:05:22;34.90;55.50
31979;DHT22;18502;43.574;1.276;2022-09-12T16:07:50;33.80;57.50
31979;DHT22;18502;43.574;1.276;2022-09-12T16:10:19;33.50;58.00
31979;DHT22;18502;43.574;1.276;2022-09-12T16:12:45;31.80;61.00
31979;DHT22;18502;43.574;1.276;2022-09-12T16:15:14;32.40;60.50
31979;DHT22;18502;43.574;1.276;2022-09-12T16:17:40;31.90;61.30
31979;DHT22;18502;43.574;1.276;2022-09-12T16:20:07;31.40;63.10
31979;DHT22;18502;43.574;1.276;2022-09-12T16:22:32;32.70;61.00
31979;DHT22;18502;43.574;1.276;2022-09-12T16:24:58;32.20;61.80
31979;DHT22;18502;43.574;1.276;2022-09-12T16:27:24;32.20;61.60
31979;DHT22;18502;43.574;1.276;2022-09-12T16:29:49;31.90;62.50
31979;DHT22;18502;43.574;1.276;2022-09-12T16:32:16;31.40;64.30
31979;DHT22;18502;43.574;1.276;2022-09-12T16:34:42;31.20;64.80
31979;DHT22;18502;43.574;1.276;2022-09-12T16:37:08;31.20;64.40
31979;DHT22;18502;43.574;1.276;2022-09-12T16:39:34;30.70;66.10
31979;DHT22;18502;43.574;1.276;2022-09-12T16:42:00;29.90;68.50
31979;DHT22;18502;43.574;1.276;2022-09-12T16:44:26;30.20;68.80
31979;DHT22;18502;43.574;1.276;2022-09-12T16:46:51;30.10;68.70
31979;DHT22;18502;43.574;1.276;2022-09-12T16:49:17;29.90;70.00
31979;DHT22;18502;43.574;1.276;2022-09-12T16:51:43;29.50;71.80
31979;DHT22;18502;43.574;1.276;2022-09-12T16:54:15;29.40;72.90
31979;DHT22;18502;43.574;1.276;2022-09-12T16:56:41;29.60;72.70
31979;DHT22;18502;43.574;1.276;2022-09-12T16:59:07;29.20;73.70
31979;DHT22;18502;43.574;1.276;2022-09-12T17:01:37;28.60;76.50
31979;DHT22;18502;43.574;1.276;2022-09-12T17:04:02;28.50;77.80
31979;DHT22;18502;43.574;1.276;2022-09-12T17:06:28;28.50;78.70
31979;DHT22;18502;43.574;1.276;2022-09-12T17:08:57;28.60;78.60
31979;DHT22;18502;43.574;1.276;2022-09-12T17:11:31;28.20;80.40
31979;DHT22;18502;43.574;1.276;2022-09-12T17:13:58;27.90;81.70
31979;DHT22;18502;43.574;1.276;2022-09-12T17:16:26;28.30;81.20
31979;DHT22;18502;43.574;1.276;2022-09-12T17:18:52;28.40;80.80
31979;DHT22;18502;43.574;1.276;2022-09-12T17:21:19;28.00;81.60
31979;DHT22;18502;43.574;1.276;2022-09-12T17:23:45;27.80;82.30
31979;DHT22;18502;43.574;1.276;2022-09-12T17:26:11;27.70;83.50
31979;DHT22;18502;43.574;1.276;2022-09-12T17:28:38;27.30;84.70
31979;DHT22;18502;43.574;1.276;2022-09-12T17:31:06;27.10;86.30
31979;DHT22;18502;43.574;1.276;2022-09-12T17:33:33;26.90;87.40
31979;DHT22;18502;43.574;1.276;2022-09-12T17:36:03;26.70;89.00
31979;DHT22;18502;43.574;1.276;2022-09-12T17:38:34;26.60;90.10
31979;DHT22;18502;43.574;1.276;2022-09-12T17:41:14;26.50;90.60
31979;DHT22;18502;43.574;1.276;2022-09-12T17:43:42;26.30;91.60
31979;DHT22;18502;43.574;1.276;2022-09-12T17:46:08;26.20;92.30
31979;DHT22;18502;43.574;1.276;2022-09-12T17:48:34;26.10;92.80
31979;DHT22;18502;43.574;1.276;2022-09-12T17:51:13;26.00;93.40
31979;DHT22;18502;43.574;1.276;2022-09-12T17:53:40;25.90;93.90
31979;DHT22;18502;43.574;1.276;2022-09-12T17:56:07;25.80;94.20
31979;DHT22;18502;43.574;1.276;2022-09-12T17:58:33;25.70;94.40
31979;DHT22;18502;43.574;1.276;2022-09-12T18:01:01;25.70;94.90
31979;DHT22;18502;43.574;1.276;2022-09-12T18:03:45;25.60;95.10
31979;DHT22;18502;43.574;1.276;2022-09-12T18:06:11;25.50;95.70
31979;DHT22;18502;43.574;1.276;2022-09-12T18:08:37;25.40;96.20
31979;DHT22;18502;43.574;1.276;2022-09-12T18:11:03;25.30;96.80
31979;DHT22;18502;43.574;1.276;2022-09-12T18:13:31;25.20;97.50
31979;DHT22;18502;43.574;1.276;2022-09-12T18:16:05;25.20;97.90
31979;DHT22;18502;43.574;1.276;2022-09-12T18:18:33;25.10;98.60
31979;DHT22;18502;43.574;1.276;2022-09-12T18:20:59;25.10;99.00
31979;DHT22;18502;43.574;1.276;2022-09-12T18:23:25;25.00;99.30
31979;DHT22;18502;43.574;1.276;2022-09-12T18:26:06;25.00;99.70
31979;DHT22;18502;43.574;1.276;2022-09-12T18:28:37;24.90;99.90